mai
13

GP DU MEXIQUE : LES RÉSULTATS EN LIVE

MX1 – Warm-up – Classification
Pos Nr Rider Nat. Fed. Bike Bestlaptime in lap Diff. First Diff. Prev. Tot. Laps Speed

1 21 Paulin, Gautier FRA FFM Kawasaki 1:52.284 3 0:00.000 0:00.000 5 50.016
2 377 Pourcel, Christophe FRA FFM Kawasaki 1:52.357 6 0:00.073 0:00.073 7 49.984
3 4 Leok, Tanel EST EMF Suzuki 1:53.948 7 0:01.664 0:01.591 7 49.286
4 9 de Dycker, Ken BEL FMB KTM 1:54.637 3 0:02.353 0:00.689 5 48.989
5 24 Simpson, Shaun GBR ACU Yamaha 1:54.737 5 0:02.453 0:00.100 7 48.947
6 222 Cairoli, Antonio ITA FMI KTM 1:55.363 4 0:03.079 0:00.626 6 48.681
7 7 Barragan, Jonathan ESP RFME Honda 1:56.467 8 0:04.183 0:01.104 8 48.22
8 999 Goncalves, Rui POR FMP Honda 1:56.836 5 0:04.552 0:00.369 7 48.067
9 22 Strijbos, Kevin BEL FMB KTM 1:57.792 7 0:05.508 0:00.956 8 47.677
10 111 Ferris, Dean AUS MA Kawasaki 1:58.754 3 0:06.470 0:00.962 7 47.291
11 19 Philippaerts, David ITA FMI Yamaha 1:58.967 3 0:06.683 0:00.213 5 47.206
12 91 Karro, Matiss LAT LAMSF KTM 1:59.806 4 0:07.522 0:00.839 4 46.876
13 11 Pourcel, Sebastien FRA FFM Kawasaki 2:00.864 4 0:08.580 0:01.058 6 46.465
14 25 Desalle, Clement BEL FMB Suzuki 2:01.046 2 0:08.762 0:00.182 6 46.396
15 42 Parker, Nathan GBR ACU KTM 2:02.644 3 0:10.360 0:01.598 3 45.791
16 67 Tiainen, Santtu FIN SML Kawasaki 2:03.651 7 0:11.367 0:01.007 7 45.418
17 121 Boog, Xavier FRA FFM Kawasaki 2:10.115 3 0:17.831 0:06.464 4 43.162
18 39 Guarneri, Davide ITA FMI KTM 2:12.143 4 0:19.859 0:02.028 5 42.499
19 62 Garcia, Martin MEX FMM KTM 2:13.984 3 0:21.700 0:01.841 4 41.915
20 183 Frossard, Steven FRA FFM Yamaha 2:14.087 4 0:21.803 0:00.103 6 41.883
21 56 Vazquez, Giuzepe MEX FMM Yamaha 2:24.882 2 0:32.598 0:10.795 3 38.763
22 58 Mendoza, Diego MEX FMM Honda 2:25.505 1 0:33.221 0:00.623 2 38.597
23 53 Garcia, Donovan MEX FMM Honda 2:26.396 2 0:34.112 0:00.891 3 38.362
24 60 Rosales, Jesus MEX FMM Yamaha 2:35.384 1 0:43.100 0:08.988 2 36.143
25 57 Rodriguez, Samir MEX FMM Yamaha 3:30.036 1 1:37.752 0:54.652 1 26.738
26 156 Mejia, Raynear DOM FDM Kawasaki 0:00.000 0 -2:07.716 -4:29.964 0 0

MX1 – Grand Prix Race 1 – Classification
Pos Nr Rider Nat. Fed. Bike Time laps Diff. First Diff. Prev. Bestlaptime in lap Speed

1 222 Cairoli, Antonio ITA FMI KTM 40:53.481 20 0:00.000 0:00.000 1:52.472 14 49.932
2 25 Desalle, Clement BEL FMB Suzuki 41:01.145 20 0:07.664 0:07.664 1:53.126 15 49.644
3 9 de Dycker, Ken BEL FMB KTM 41:24.000 20 0:30.519 0:22.855 1:54.439 2 49.074
4 21 Paulin, Gautier FRA FFM Kawasaki 41:37.406 20 0:43.925 0:13.406 1:56.343 2 48.271
5 22 Strijbos, Kevin BEL FMB KTM 41:41.740 20 0:48.259 0:04.334 1:56.511 8 48.201
6 4 Leok, Tanel EST EMF Suzuki 41:46.570 20 0:53.089 0:04.830 1:55.856 15 48.474
7 7 Barragan, Jonathan ESP RFME Honda 42:00.486 20 1:07.005 0:13.916 1:57.248 3 47.898
8 121 Boog, Xavier FRA FFM Kawasaki 42:08.217 20 1:14.736 0:07.731 1:56.110 11 48.368
9 999 Goncalves, Rui POR FMP Honda 42:13.101 20 1:19.620 0:04.884 1:57.274 1 47.888
10 19 Philippaerts, David ITA FMI Yamaha 42:28.321 20 1:34.840 0:15.220 1:55.212 7 48.745
11 91 Karro, Matiss LAT LAMSF KTM 42:29.948 20 1:36.467 0:01.627 1:58.061 6 47.569
12 111 Ferris, Dean AUS MA Kawasaki 42:40.428 20 1:46.947 0:10.480 1:57.552 3 47.775
13 11 Pourcel, Sebastien FRA FFM Kawasaki 42:59.407 20 2:05.926 0:18.979 1:56.782 3 48.09
14 67 Tiainen, Santtu FIN SML Kawasaki 42:34.584 19 1 lap 1 lap 2:02.402 1 45.882
15 62 Garcia, Martin MEX FMM KTM 41:16.641 18 2 laps 1 lap 2:05.782 7 44.649
16 377 Pourcel, Christophe FRA FFM Kawasaki 42:48.946 18 2 laps 1:32.305 1:53.019 2 49.691
17 63 Fernandez, Rodolfo USA FNMG Yamaha 42:52.632 18 2 laps 0:03.686 2:06.795 1 44.292
18 54 Farfan, Mario MEX FMM Honda 42:28.182 16 4 laps 2 laps 2:16.513 8 41.139
19 56 Vazquez, Giuzepe MEX FMM Yamaha 42:34.895 16 4 laps 0:06.713 2:15.996 2 41.295
20 156 Mejia, Raynear DOM FDM Kawasaki 42:57.209 16 4 laps 0:22.314 2:05.776 3 44.651
21 53 Garcia, Donovan MEX FMM Honda 41:22.191 15 5 laps 1 lap 2:16.650 1 41.098
22 58 Mendoza, Diego MEX FMM Honda 42:18.520 15 5 laps 0:56.329 2:12.619 8 42.347
23 59 Guzman, Jose Luis MEX FMM Kawasaki 41:08.553 14 6 laps 1 lap 2:34.212 1 36.417
24 39 Guarneri, Davide ITA FMI KTM 29:50.273 13 7 laps 1 lap 1:57.570 3 47.767
25 57 Rodriguez, Samir MEX FMM Yamaha 19:38.159 8 12 laps 5 laps 2:05.460 5 44.763
26 183 Frossard, Steven FRA FFM Yamaha 17:40.425 7 13 laps 1 lap 1:57.148 4 47.939
27 60 Rosales, Jesus MEX FMM Yamaha 7:21.414 2 18 laps 5 laps 2:21.607 1 39.659
28 24 Simpson, Shaun GBR ACU Yamaha 0:00.000 0 20 laps 2 laps 0:00.000 0 0

MX1 – Grand Prix Race 2 – Classification
Pos Nr Rider Nat. Fed. Bike Time laps Diff. First Diff. Prev. Bestlaptime in lap Speed

1 19 Philippaerts, David ITA FMI Yamaha 40:15.650 20 0:00.000 0:00.000 1:52.142 3 50.079
2 25 Desalle, Clement BEL FMB Suzuki 40:16.973 20 0:01.323 0:01.323 1:51.907 5 50.185
3 222 Cairoli, Antonio ITA FMI KTM 40:21.101 20 0:05.451 0:04.128 1:50.216 3 50.954
4 377 Pourcel, Christophe FRA FFM Kawasaki 40:27.095 20 0:11.445 0:05.994 1:50.922 2 50.63
5 9 de Dycker, Ken BEL FMB KTM 40:29.840 20 0:14.190 0:02.745 1:52.397 4 49.966
6 4 Leok, Tanel EST EMF Suzuki 40:32.308 20 0:16.658 0:02.468 1:52.388 3 49.97
7 121 Boog, Xavier FRA FFM Kawasaki 40:33.434 20 0:17.784 0:01.126 1:52.022 2 50.133
8 999 Goncalves, Rui POR FMP Honda 40:34.304 20 0:18.654 0:00.870 1:52.412 6 49.959
9 7 Barragan, Jonathan ESP RFME Honda 40:45.624 20 0:29.974 0:11.320 1:53.100 9 49.655
10 22 Strijbos, Kevin BEL FMB KTM 41:00.882 20 0:45.232 0:15.258 1:53.547 6 49.46
11 39 Guarneri, Davide ITA FMI KTM 41:17.502 20 1:01.852 0:16.620 1:54.622 2 48.996
12 111 Ferris, Dean AUS MA Kawasaki 41:20.766 20 1:05.116 0:03.264 1:53.479 3 49.489
13 91 Karro, Matiss LAT LAMSF KTM 41:55.868 20 1:40.218 0:35.102 1:55.229 7 48.738
14 11 Pourcel, Sebastien FRA FFM Kawasaki 41:25.005 19 1 lap 1 lap 1:53.443 2 49.505
15 67 Tiainen, Santtu FIN SML Kawasaki 41:34.621 19 1 lap 0:09.616 2:00.285 3 46.689
16 156 Mejia, Raynear DOM FDM Kawasaki 40:23.516 18 2 laps 1 lap 2:03.613 2 45.432
17 57 Rodriguez, Samir MEX FMM Yamaha 42:28.935 18 2 laps 2:05.419 2:04.749 3 45.018
18 63 Fernandez, Rodolfo USA FNMG Yamaha 38:07.432 17 3 laps 1 lap 1:59.432 1 47.023
19 53 Garcia, Donovan MEX FMM Honda 42:18.189 17 3 laps 4:10.757 2:10.591 2 43.004
20 59 Guzman, Jose Luis MEX FMM Kawasaki 41:25.263 15 5 laps 2 laps 2:26.112 10 38.436
21 54 Farfan, Mario MEX FMM Honda 29:05.985 12 8 laps 3 laps 2:08.452 4 43.721
22 56 Vazquez, Giuzepe MEX FMM Yamaha 22:55.763 9 11 laps 3 laps 2:08.080 2 43.848
23 62 Garcia, Martin MEX FMM KTM 4:33.135 1 19 laps 8 laps 2:21.041 1 39.818

MX1 – GP Classification
Pos Nr Rider Nat. Fed. Bike Race 1 Race 2 Total

1 222 Cairoli, Antonio ITA FMI KTM 25 20 45
2 25 Desalle, Clement BEL FMB Suzuki 22 22 44
3 19 Philippaerts, David ITA FMI Yamaha 11 25 36
4 9 de Dycker, Ken BEL FMB KTM 20 16 36
5 4 Leok, Tanel EST EMF Suzuki 15 15 30
6 121 Boog, Xavier FRA FFM Kawasaki 13 14 27
7 22 Strijbos, Kevin BEL FMB KTM 16 11 27
8 7 Barragan, Jonathan ESP RFME Honda 14 12 26
9 999 Goncalves, Rui POR FMP Honda 12 13 25
10 377 Pourcel, Christophe FRA FFM Kawasaki 5 18 23
11 111 Ferris, Dean AUS MA Kawasaki 9 9 18
12 91 Karro, Matiss LAT LAMSF KTM 10 8 18
13 21 Paulin, Gautier FRA FFM Kawasaki 18 0 18
14 11 Pourcel, Sebastien FRA FFM Kawasaki 8 7 15
15 67 Tiainen, Santtu FIN SML Kawasaki 7 6 13
16 39 Guarneri, Davide ITA FMI KTM 0 10 10
17 63 Fernandez, Rodolfo USA FNMG Yamaha 4 3 7
18 156 Mejia, Raynear DOM FDM Kawasaki 1 5 6
19 62 Garcia, Martin MEX FMM KTM 6 0 6
20 57 Rodriguez, Samir MEX FMM Yamaha 0 4 4
21 54 Farfan, Mario MEX FMM Honda 3 0 3
22 53 Garcia, Donovan MEX FMM Honda 0 2 2
23 56 Vazquez, Giuzepe MEX FMM Yamaha 2 0 2
24 59 Guzman, Jose Luis MEX FMM Kawasaki 0 1 1
25 58 Mendoza, Diego MEX FMM Honda 0 0 0
26 183 Frossard, Steven FRA FFM Yamaha 0 0 0
27 60 Rosales, Jesus MEX FMM Yamaha 0 0 0
28 24 Simpson, Shaun GBR ACU Yamaha 0 0 0

MX1 – World Championship Classification
Pos Nr Rider Nat. Total NED BUL ITA MEX BRA FRA POR BEL SWE LAT RUS CZE GBR NED EUR GER

1 222 Cairoli, A. ITA 178 25-25 18-20 20-25 25-20 - - - - - - - - - - - - - - - - - - - - - - - -
2 25 Desalle, C. BEL 149 22-22 20-3 18-20 22-22 - - - - - - - - - - - - - - - - - - - - - - - -
3 21 Paulin, G. FRA 134 18-14 22-25 22-15 18-0 - - - - - - - - - - - - - - - - - - - - - - - -
4 9 de Dycker, Ken BEL 131 16-15 14-18 14-18 20-16 - - - - - - - - - - - - - - - - - - - - - - - -
5 377 Pourcel, C. FRA 129 0-12 25-22 25-22 5-18 - - - - - - - - - - - - - - - - - - - - - - - -
6 19 Philippaerts, D. ITA 105 14-6 16-8 12-13 11-25 - - - - - - - - - - - - - - - - - - - - - - - -
7 22 Strijbos, K. BEL 103 15-16 9-11 11-14 16-11 - - - - - - - - - - - - - - - - - - - - - - - -
8 121 Boog, Xavier FRA 99 13-7 15-14 16-7 13-14 - - - - - - - - - - - - - - - - - - - - - - - -
9 4 Leok, Tanel EST 92 12-10 7-13 10-10 15-15 - - - - - - - - - - - - - - - - - - - - - - - -
10 999 Goncalves, Rui POR 79 11-18 12-0 1-12 12-13 - - - - - - - - - - - - - - - - - - - - - - - -
11 777 Bobryshev, E. RUS 69 0-9 13-16 15-16 - - - - - - - - - - - - - - - - - - - - - - - - - -
12 7 Barragan, J. ESP 59 4-8 5-9 7-0 14-12 - - - - - - - - - - - - - - - - - - - - - - - -
13 24 Simpson, Shaun GBR 58 10-13 10-12 13-0 0-0 - - - - - - - - - - - - - - - - - - - - - - - -
14 91 Karro, Matiss LAT 53 6-11 4-0 5-9 10-8 - - - - - - - - - - - - - - - - - - - - - - - -
15 39 Guarneri, D. ITA 46 8-4 0-10 9-5 0-10 - - - - - - - - - - - - - - - - - - - - - - - -
16 183 Frossard, S. FRA 40 20-20 - - 0-0 0-0 - - - - - - - - - - - - - - - - - - - - - - - -
17 111 Ferris, Dean AUS 40 - - 1-6 4-11 9-9 - - - - - - - - - - - - - - - - - - - - - - - -
18 11 Pourcel, S. FRA 39 0-3 6-15 0-0 8-7 - - - - - - - - - - - - - - - - - - - - - - - -
19 120 Soubeyras, C. FRA 27 0-0 8-7 6-6 - - - - - - - - - - - - - - - - - - - - - - - - - -
20 36 Bonini, Matteo ITA 21 7-0 2-4 8-0 - - - - - - - - - - - - - - - - - - - - - - - - - -
21 67 Tiainen, S. FIN 15 0-0 0-0 0-2 7-6 - - - - - - - - - - - - - - - - - - - - - - - -
22 287 Schiffer, M. GER 14 9-5 - - - - - - - - - - - - - - - - - - - - - - - - - - - - - -
23 10 Boissiere, A. FRA 12 1-0 0-0 3-8 - - - - - - - - - - - - - - - - - - - - - - - - - -
24 32 Potisek, Milko FRA 12 2-0 3-5 2-0 - - - - - - - - - - - - - - - - - - - - - - - - - -
25 30 Aranda, G. FRA 11 0-0 11-0 - - - - - - - - - - - - - - - - - - - - - - - - - - - -
26 61 Brakke, Herjan NED 10 5-0 0-1 0-4 - - - - - - - - - - - - - - - - - - - - - - - - - -
27 63 Fernandez, R. USA 7 - - - - - - 4-3 - - - - - - - - - - - - - - - - - - - - - - - -
28 62 Garcia, Martin MEX 6 - - - - - - 6-0 - - - - - - - - - - - - - - - - - - - - - - - -
29 156 Mejia, Raynear DOM 6 - - - - - - 1-5 - - - - - - - - - - - - - - - - - - - - - - - -
30 37 Krestinov, G. EST 5 3-2 - - - - - - - - - - - - - - - - - - - - - - - - - - - - - -..

MX2 – Warm-up – Classification
Pos Nr Rider Nat. Fed. Bike Bestlaptime in lap Diff. First Diff. Prev. Tot. Laps Speed

1 84 Herlings, Jeffrey NED KNMV KTM 1:54.544 7 0:00.000 0:00.000 7 49.029
2 25 Coldenhoff, Glenn NED KNMV KTM 1:56.608 6 0:02.064 0:02.064 6 48.161
3 89 van Horebeek, Jeremy BEL FMB KTM 1:56.799 7 0:02.255 0:00.191 7 48.083
4 34 Roelants, Joel BEL FMB Kawasaki 1:57.448 7 0:02.904 0:00.649 7 47.817
5 152 Petrov, Petar BUL BMF Suzuki 1:57.800 6 0:03.256 0:00.352 6 47.674
6 911 Tixier, Jordi FRA FFM KTM 1:57.845 7 0:03.301 0:00.045 7 47.656
7 45 Nicholls, Jake GBR ACU KTM 1:58.664 5 0:04.120 0:00.819 6 47.327
8 77 Lupino, Alessandro ITA FMI Husqvarna 1:58.737 7 0:04.193 0:00.073 7 47.298
9 151 Kullas, Harri FIN SML Suzuki 1:58.782 5 0:04.238 0:00.045 7 47.28
10 22 Ferrandis, Dylan FRA FFM Kawasaki 1:59.131 5 0:04.587 0:00.349 5 47.141
11 37 Teillet, Valentin FRA FFM Kawasaki 1:59.269 4 0:04.725 0:00.138 5 47.087
12 100 Searle, Tommy GBR ACU Kawasaki 1:59.436 3 0:04.892 0:00.167 4 47.021
13 17 Butron, Jose ESP RFME KTM 1:59.793 4 0:05.249 0:00.357 5 46.881
14 170 Leib, Michael USA AMA Yamaha 2:00.248 2 0:05.704 0:00.455 2 46.703
15 173 Guillod, Valentin SUI FMS KTM 2:00.459 3 0:05.915 0:00.211 8 46.622
16 33 Lieber, Julien BEL FMB KTM 2:00.898 5 0:06.354 0:00.439 6 46.452
17 249 Larsen, Nikolaj DEN DMU Suzuki 2:00.909 7 0:06.365 0:00.011 7 46.448
18 23 Charlier, Christophe FRA FFM Yamaha 2:01.244 4 0:06.700 0:00.335 5 46.32
19 6 Anstie, Max GBR AMA Honda 2:01.754 2 0:07.210 0:00.510 7 46.126
20 230 Alanis, Ruben MEX FMM KTM 2:09.655 2 0:15.111 0:07.901 6 43.315
21 61 Salazar, Jetro PER FPEM KTM 2:13.218 3 0:18.674 0:03.563 4 42.156
22 54 Ruelas, Luis MEX FMM Kawasaki 2:25.317 1 0:30.773 0:12.099 2 38.647
23 55 Aguilar, Alvaro MEX FMM KTM 2:25.337 4 0:30.793 0:00.020 4 38.641
24 57 Oros, Carlos MEX FMM Kawasaki 2:35.234 2 0:40.690 0:09.897 2 36.178
25 793 Vieyra, Brandon MEX FMM Suzuki 2:37.772 1 0:43.228 0:02.538 1 35.596
26 56 Mejia, Javier MEX FMM Yamaha 2:41.647 4 0:47.103 0:03.875 4 34.742
27 53 Sanchez, Pablo MEX FMM Yamaha 2:46.909 1 0:52.365 0:05.262 2 33.647

MX2 – Grand Prix Race 1 – Classification
Pos Nr Rider Nat. Fed. Bike Time laps Diff. First Diff. Prev. Bestlaptime in lap Speed

1 84 Herlings, Jeffrey NED KNMV KTM 40:55.196 20 0:00.000 0:00.000 1:55.439 4 48.649
2 100 Searle, Tommy GBR ACU Kawasaki 41:01.090 20 0:05.894 0:05.894 1:55.867 2 48.469
3 89 van Horebeek, Jeremy BEL FMB KTM 41:04.197 20 0:09.001 0:03.107 1:55.591 2 48.585
4 22 Ferrandis, Dylan FRA FFM Kawasaki 41:42.355 20 0:47.159 0:38.158 1:57.179 20 47.927
5 911 Tixier, Jordi FRA FFM KTM 41:42.862 20 0:47.666 0:00.507 1:56.981 6 48.008
6 34 Roelants, Joel BEL FMB Kawasaki 41:43.910 20 0:48.714 0:01.048 1:56.317 6 48.282
7 23 Charlier, Christophe FRA FFM Yamaha 41:55.927 20 1:00.731 0:12.017 1:57.502 6 47.795
8 6 Anstie, Max GBR AMA Honda 42:14.289 20 1:19.093 0:18.362 1:57.992 5 47.596
9 17 Butron, Jose ESP RFME KTM 42:19.592 20 1:24.396 0:05.303 1:58.788 6 47.278
10 45 Nicholls, Jake GBR ACU KTM 42:22.942 20 1:27.746 0:03.350 1:58.566 9 47.366
11 77 Lupino, Alessandro ITA FMI Husqvarna 41:12.707 19 1 lap 1 lap 2:00.570 3 46.579
12 249 Larsen, Nikolaj DEN DMU Suzuki 41:34.115 19 1 lap 0:21.408 2:01.087 6 46.38
13 33 Lieber, Julien BEL FMB KTM 41:40.954 19 1 lap 0:06.839 2:00.232 6 46.71
14 173 Guillod, Valentin SUI FMS KTM 41:42.173 19 1 lap 0:01.219 2:01.568 6 46.196
15 25 Coldenhoff, Glenn NED KNMV KTM 42:44.495 19 1 lap 1:02.322 1:58.362 4 47.448
16 152 Petrov, Petar BUL BMF Suzuki 42:49.979 19 1 lap 0:05.484 1:59.907 3 46.836
17 61 Salazar, Jetro PER FPEM KTM 41:24.143 18 2 laps 1 lap 2:05.373 4 44.794
18 54 Ruelas, Luis MEX FMM Kawasaki 41:35.545 15 5 laps 3 laps 2:13.744 2 41.991
19 55 Aguilar, Alvaro MEX FMM KTM 41:01.838 14 6 laps 1 lap 2:22.754 2 39.34
20 60 Nungaray, Erick MEX FMM Suzuki 43:11.532 14 6 laps 2:09.694 2:25.540 2 38.587
21 151 Kullas, Harri FIN SML Suzuki 28:32.184 13 7 laps 1 lap 1:58.365 9 47.446
22 37 Teillet, Valentin FRA FFM Kawasaki 28:48.528 13 7 laps 0:16.344 1:56.180 4 48.339
23 53 Sanchez, Pablo MEX FMM Yamaha 42:04.812 13 7 laps 13:16.284 2:22.882 2 39.305
24 56 Mejia, Javier MEX FMM Yamaha 42:05.823 13 7 laps 0:01.011 2:31.790 4 36.998
25 793 Vieyra, Brandon MEX FMM Suzuki 19:51.818 7 13 laps 6 laps 2:22.400 2 39.438
26 170 Leib, Michael USA AMA Yamaha 12:45.128 5 15 laps 2 laps 1:59.227 2 47.103
27 57 Oros, Carlos MEX FMM Kawasaki 12:36.982 4 16 laps 1 lap 2:21.341 2 39.734
28 230 Alanis, Ruben MEX FMM KTM 3:26.203 0 20 laps 4 laps 0:00.000 0 0

MX2 – Grand Prix Race 2 – Classification
Pos Nr Rider Nat. Fed. Bike Time laps Diff. First Diff. Prev. Bestlaptime in lap Speed

1 84 Herlings, Jeffrey NED KNMV KTM 39:06.278 19 0:00.000 0:00.000 1:52.599 1 49.876
2 100 Searle, Tommy GBR ACU Kawasaki 39:31.052 19 0:24.774 0:24.774 1:55.454 13 48.643
3 89 van Horebeek, Jeremy BEL FMB KTM 39:33.441 19 0:27.163 0:02.389 1:56.088 3 48.377
4 34 Roelants, Joel BEL FMB Kawasaki 39:42.461 19 0:36.183 0:09.020 1:55.837 18 48.482
5 23 Charlier, Christophe FRA FFM Yamaha 39:57.460 19 0:51.182 0:14.999 1:57.395 12 47.838
6 45 Nicholls, Jake GBR ACU KTM 40:11.533 19 1:05.255 0:14.073 1:58.264 11 47.487
7 25 Coldenhoff, Glenn NED KNMV KTM 40:19.301 19 1:13.023 0:07.768 1:57.902 3 47.633
8 911 Tixier, Jordi FRA FFM KTM 40:23.906 19 1:17.628 0:04.605 1:57.208 8 47.915
9 6 Anstie, Max GBR AMA Honda 40:31.864 19 1:25.586 0:07.958 1:58.946 18 47.215
10 151 Kullas, Harri FIN SML Suzuki 40:36.686 19 1:30.408 0:04.822 1:58.416 8 47.426
11 77 Lupino, Alessandro ITA FMI Husqvarna 41:09.433 19 2:03.155 0:32.747 1:58.866 8 47.246
12 152 Petrov, Petar BUL BMF Suzuki 39:39.218 18 1 lap 1 lap 1:59.496 7 46.997
13 249 Larsen, Nikolaj DEN DMU Suzuki 39:54.742 18 1 lap 0:15.524 2:01.407 11 46.258
14 173 Guillod, Valentin SUI FMS KTM 40:31.470 18 1 lap 0:36.728 2:00.722 3 46.52
15 61 Salazar, Jetro PER FPEM KTM 41:28.193 18 1 lap 0:56.723 2:05.252 6 44.838
16 54 Ruelas, Luis MEX FMM Kawasaki 41:18.492 16 3 laps 2 laps 2:17.246 10 40.919
17 55 Aguilar, Alvaro MEX FMM KTM 41:41.873 15 4 laps 1 lap 2:27.587 2 38.052
18 56 Mejia, Javier MEX FMM Yamaha 39:36.886 14 5 laps 1 lap 2:27.559 6 38.059
19 60 Nungaray, Erick MEX FMM Suzuki 39:40.363 14 5 laps 0:03.477 2:24.162 3 38.956
20 53 Sanchez, Pablo MEX FMM Yamaha 41:13.507 12 7 laps 2 laps 2:23.210 4 39.215
21 793 Vieyra, Brandon MEX FMM Suzuki 39:07.896 11 8 laps 1 lap 2:22.376 2 39.445
22 17 Butron, Jose ESP RFME KTM 18:38.253 8 11 laps 3 laps 1:59.527 4 46.985
23 33 Lieber, Julien BEL FMB KTM 12:33.749 5 14 laps 3 laps 2:00.410 3 46.641
24 22 Ferrandis, Dylan FRA FFM Kawasaki 6:30.609 1 18 laps 4 laps 3:15.116 1 28.783
25 230 Alanis, Ruben MEX FMM KTM 2:19.614 0 19 laps 1 lap 0:00.000 0 0

MX2 – GP Classification
Pos Nr Rider Nat. Fed. Bike Race 1 Race 2 Total

1 84 Herlings, Jeffrey NED KNMV KTM 25 25 50
2 100 Searle, Tommy GBR ACU Kawasaki 22 22 44
3 89 van Horebeek, Jeremy BEL FMB KTM 20 20 40
4 34 Roelants, Joel BEL FMB Kawasaki 15 18 33
5 23 Charlier, Christophe FRA FFM Yamaha 14 16 30
6 911 Tixier, Jordi FRA FFM KTM 16 13 29
7 45 Nicholls, Jake GBR ACU KTM 11 15 26
8 6 Anstie, Max GBR AMA Honda 13 12 25
9 25 Coldenhoff, Glenn NED KNMV KTM 6 14 20
10 77 Lupino, Alessandro ITA FMI Husqvarna 10 10 20
11 22 Ferrandis, Dylan FRA FFM Kawasaki 18 0 18
12 249 Larsen, Nikolaj DEN DMU Suzuki 9 8 17
13 152 Petrov, Petar BUL BMF Suzuki 5 9 14
14 173 Guillod, Valentin SUI FMS KTM 7 7 14
15 17 Butron, Jose ESP RFME KTM 12 0 12
16 151 Kullas, Harri FIN SML Suzuki 0 11 11
17 61 Salazar, Jetro PER FPEM KTM 4 6 10
18 54 Ruelas, Luis MEX FMM Kawasaki 3 5 8
19 33 Lieber, Julien BEL FMB KTM 8 0 8
20 55 Aguilar, Alvaro MEX FMM KTM 2 4 6
21 56 Mejia, Javier MEX FMM Yamaha 0 3 3
22 60 Nungaray, Erick MEX FMM Suzuki 1 2 3
23 53 Sanchez, Pablo MEX FMM Yamaha 0 1 1
24 793 Vieyra, Brandon MEX FMM Suzuki 0 0 0
25 230 Alanis, Ruben MEX FMM KTM 0 0 0
26 37 Teillet, Valentin FRA FFM Kawasaki 0 0 0
27 170 Leib, Michael USA AMA Yamaha 0 0 0
28 57 Oros, Carlos MEX FMM Kawasaki 0 0 0

MX2 – World Championship Classification
Pos Nr Rider Nat. Total NED BUL ITA MEX BRA FRA POR BEL SWE LAT RUS CZE GBR NED EUR GER

1 84 Herlings, J. NED 194 25-25 22-22 25-25 25-25 - - - - - - - - - - - - - - - - - - - - - - - -
2 89 van Horebeek, J. BEL 154 18-18 18-20 22-18 20-20 - - - - - - - - - - - - - - - - - - - - - - - -
3 100 Searle, Tommy GBR 153 22-20 20-25 0-22 22-22 - - - - - - - - - - - - - - - - - - - - - - - -
4 34 Roelants, Joel BEL 118 20-22 25-18 0-0 15-18 - - - - - - - - - - - - - - - - - - - - - - - -
5 911 Tixier, Jordi FRA 107 15-14 12-7 14-16 16-13 - - - - - - - - - - - - - - - - - - - - - - - -
6 6 Anstie, Max GBR 105 10-16 15-16 10-13 13-12 - - - - - - - - - - - - - - - - - - - - - - - -
7 45 Nicholls, Jake GBR 95 16-12 14-9 18-0 11-15 - - - - - - - - - - - - - - - - - - - - - - - -
8 22 Ferrandis, D. FRA 91 11-13 13-11 16-9 18-0 - - - - - - - - - - - - - - - - - - - - - - - -
9 77 Lupino, A. ITA 80 8-8 7-15 7-15 10-10 - - - - - - - - - - - - - - - - - - - - - - - -
10 151 Kullas, Harri FIN 76 5-10 16-12 15-7 0-11 - - - - - - - - - - - - - - - - - - - - - - - -
11 170 Leib, Michael USA 61 - - 11-10 20-20 0-0 - - - - - - - - - - - - - - - - - - - - - - - -
12 17 Butron, Jose ESP 60 0-0 8-14 12-14 12-0 - - - - - - - - - - - - - - - - - - - - - - - -
13 152 Petrov, Petar BUL 57 7-0 9-8 8-11 5-9 - - - - - - - - - - - - - - - - - - - - - - - -
14 23 Charlier, C. FRA 55 - - - - 13-12 14-16 - - - - - - - - - - - - - - - - - - - - - - - -
15 66 Tonkov, A. RUS 55 14-1 10-13 9-8 - - - - - - - - - - - - - - - - - - - - - - - - - -
16 249 Larsen, N. DEN 49 9-0 6-0 11-6 9-8 - - - - - - - - - - - - - - - - - - - - - - - -
17 119 Pocock, Mel GBR 42 13-9 4-6 0-10 - - - - - - - - - - - - - - - - - - - - - - - - - -
18 25 Coldenhoff, G. NED 41 6-15 - - - - 6-14 - - - - - - - - - - - - - - - - - - - - - - - -
19 173 Guillod, V. SUI 31 3-4 1-0 6-3 7-7 - - - - - - - - - - - - - - - - - - - - - - - -
20 37 Teillet, V. FRA 23 12-11 0-0 - - 0-0 - - - - - - - - - - - - - - - - - - - - - - - -
21 33 Lieber, Julien BEL 13 0-0 0-5 0-0 8-0 - - - - - - - - - - - - - - - - - - - - - - - -
22 35 Rauchenecker, P. AUT 12 0-7 0-0 0-5 - - - - - - - - - - - - - - - - - - - - - - - - - -
23 461 Febvre, Romain FRA 11 0-6 5-0 0-0 - - - - - - - - - - - - - - - - - - - - - - - - - -
24 61 Salazar, Jetro PER 10 - - - - - - 4-6 - - - - - - - - - - - - - - - - - - - - - - - -
25 922 Fors, Kevin BEL 10 0-3 3-0 4-0 - - - - - - - - - - - - - - - - - - - - - - - - - -
26 195 Justs, Roberts LAT 9 2-5 0-1 0-1 - - - - - - - - - - - - - - - - - - - - - - - - - -
27 54 Ruelas, Luis MEX 8 - - - - - - 3-5 - - - - - - - - - - - - - - - - - - - - - - - -
28 128 Monticelli, I. ITA 7 0-0 2-0 5-0 - - - - - - - - - - - - - - - - - - - - - - - - - -
29 55 Aguilar, A. MEX 6 - - - - - - 2-4 - - - - - - - - - - - - - - - - - - - - - - - -
30 141 Cervellin, A. ITA 5 0-0 0-4 1-0 - - - - - - - - - - - - - - - - - - - - - - - - - -
31 202 Larrieu, Loic FRA 5 0-0 0-0 3-2 - - - - - - - - - - - - - - - - - - - - - - - - - ..

A voir aussi :

Le commentaires sont fermés.